sensor_id;sensor_type;location;lat;lon;timestamp;temperature;humidity
14144;DHT22;7152;48.348;10.980;2022-08-21T00:00:55;15.80;99.90
14144;DHT22;7152;48.348;10.980;2022-08-21T00:03:21;15.80;99.90
14144;DHT22;7152;48.348;10.980;2022-08-21T00:05:50;15.80;99.90
14144;DHT22;7152;48.348;10.980;2022-08-21T00:08:17;15.70;99.90
14144;DHT22;7152;48.348;10.980;2022-08-21T00:10:44;15.60;99.90
14144;DHT22;7152;48.348;10.980;2022-08-21T00:13:11;15.60;99.90
14144;DHT22;7152;48.348;10.980;2022-08-21T00:15:39;15.50;99.90
14144;DHT22;7152;48.348;10.980;2022-08-21T00:18:07;15.50;99.90
14144;DHT22;7152;48.348;10.980;2022-08-21T00:20:34;15.50;99.90
14144;DHT22;7152;48.348;10.980;2022-08-21T00:23:00;15.40;99.90
14144;DHT22;7152;48.348;10.980;2022-08-21T00:25:26;15.40;99.90
14144;DHT22;7152;48.348;10.980;2022-08-21T00:27:52;15.40;99.90
14144;DHT22;7152;48.348;10.980;2022-08-21T00:30:19;15.30;99.90
14144;DHT22;7152;48.348;10.980;2022-08-21T00:32:45;15.30;99.90
14144;DHT22;7152;48.348;10.980;2022-08-21T00:35:14;15.30;99.90
14144;DHT22;7152;48.348;10.980;2022-08-21T00:37:41;15.40;99.90
14144;DHT22;7152;48.348;10.980;2022-08-21T00:40:09;15.40;99.90
14144;DHT22;7152;48.348;10.980;2022-08-21T00:42:36;15.40;99.90
14144;DHT22;7152;48.348;10.980;2022-08-21T00:45:08;15.40;99.90
14144;DHT22;7152;48.348;10.980;2022-08-21T00:47:34;15.40;99.90
14144;DHT22;7152;48.348;10.980;2022-08-21T00:50:00;15.40;99.90
14144;DHT22;7152;48.348;10.980;2022-08-21T00:52:28;15.40;99.90
14144;DHT22;7152;48.348;10.980;2022-08-21T00:54:57;15.40;99.90
14144;DHT22;7152;48.348;10.980;2022-08-21T00:57:32;15.40;99.90
14144;DHT22;7152;48.348;10.980;2022-08-21T01:00:00;15.40;99.90
14144;DHT22;7152;48.348;10.980;2022-08-21T01:02:27;15.40;99.90
14144;DHT22;7152;48.348;10.980;2022-08-21T01:04:53;15.40;99.90
14144;DHT22;7152;48.348;10.980;2022-08-21T01:07:19;15.40;99.90
14144;DHT22;7152;48.348;10.980;2022-08-21T01:09:46;15.40;99.90
14144;DHT22;7152;48.348;10.980;2022-08-21T01:12:13;15.30;99.90
14144;DHT22;7152;48.348;10.980;2022-08-21T01:14:40;15.30;99.90
14144;DHT22;7152;48.348;10.980;2022-08-21T01:17:10;15.30;99.90
14144;DHT22;7152;48.348;10.980;2022-08-21T01:19:37;15.20;99.90
14144;DHT22;7152;48.348;10.980;2022-08-21T01:22:03;15.20;99.90
14144;DHT22;7152;48.348;10.980;2022-08-21T01:24:28;15.20;99.90
14144;DHT22;7152;48.348;10.980;2022-08-21T01:26:54;15.20;99.90
14144;DHT22;7152;48.348;10.980;2022-08-21T01:29:29;15.20;99.90
14144;DHT22;7152;48.348;10.980;2022-08-21T01:31:56;15.20;99.90
14144;DHT22;7152;48.348;10.980;2022-08-21T01:34:22;15.10;99.90
14144;DHT22;7152;48.348;10.980;2022-08-21T01:36:48;15.10;99.90
14144;DHT22;7152;48.348;10.980;2022-08-21T01:39:15;15.10;99.90
14144;DHT22;7152;48.348;10.980;2022-08-21T01:41:40;15.10;99.90
14144;DHT22;7152;48.348;10.980;2022-08-21T01:44:06;15.00;99.90
14144;DHT22;7152;48.348;10.980;2022-08-21T01:46:32;15.00;99.90
14144;DHT22;7152;48.348;10.980;2022-08-21T01:48:58;15.00;99.90
14144;DHT22;7152;48.348;10.980;2022-08-21T01:51:24;15.00;99.90
14144;DHT22;7152;48.348;10.980;2022-08-21T01:53:50;15.00;99.90
14144;DHT22;7152;48.348;10.980;2022-08-21T01:56:17;15.00;99.90
14144;DHT22;7152;48.348;10.980;2022-08-21T01:58:45;15.00;99.90
14144;DHT22;7152;48.348;10.980;2022-08-21T02:01:12;15.00;99.90
14144;DHT22;7152;48.348;10.980;2022-08-21T02:03:38;15.00;99.90
14144;DHT22;7152;48.348;10.980;2022-08-21T02:06:05;15.00;99.90
14144;DHT22;7152;48.348;10.980;2022-08-21T02:08:32;14.90;99.90
14144;DHT22;7152;48.348;10.980;2022-08-21T02:10:58;14.90;99.90
14144;DHT22;7152;48.348;10.980;2022-08-21T02:13:25;14.80;99.90
14144;DHT22;7152;48.348;10.980;2022-08-21T02:15:51;14.80;99.90
14144;DHT22;7152;48.348;10.980;2022-08-21T02:18:17;14.70;99.90
14144;DHT22;7152;48.348;10.980;2022-08-21T02:20:46;14.70;99.90
14144;DHT22;7152;48.348;10.980;2022-08-21T02:23:13;14.70;99.90
14144;DHT22;7152;48.348;10.980;2022-08-21T02:25:39;14.60;99.90
14144;DHT22;7152;48.348;10.980;2022-08-21T02:28:09;14.60;99.90
14144;DHT22;7152;48.348;10.980;2022-08-21T02:30:39;14.50;99.90
14144;DHT22;7152;48.348;10.980;2022-08-21T02:33:06;14.50;99.90
14144;DHT22;7152;48.348;10.980;2022-08-21T02:35:32;14.50;99.90
14144;DHT22;7152;48.348;10.980;2022-08-21T02:38:00;14.50;99.90
14144;DHT22;7152;48.348;10.980;2022-08-21T02:40:29;14.50;99.90
14144;DHT22;7152;48.348;10.980;2022-08-21T02:42:57;14.50;99.90
14144;DHT22;7152;48.348;10.980;2022-08-21T02:45:26;14.50;99.90
14144;DHT22;7152;48.348;10.980;2022-08-21T02:47:58;14.50;99.90
14144;DHT22;7152;48.348;10.980;2022-08-21T02:50:27;14.50;99.90
14144;DHT22;7152;48.348;10.980;2022-08-21T02:52:54;14.50;99.90
14144;DHT22;7152;48.348;10.980;2022-08-21T02:55:21;14.50;99.90
14144;DHT22;7152;48.348;10.980;2022-08-21T02:57:48;14.50;99.90
14144;DHT22;7152;48.348;10.980;2022-08-21T03:00:14;14.50;99.90
14144;DHT22;7152;48.348;10.980;2022-08-21T03:02:42;14.50;99.90
14144;DHT22;7152;48.348;10.980;2022-08-21T03:05:09;14.50;99.90
14144;DHT22;7152;48.348;10.980;2022-08-21T03:07:36;14.50;99.90
14144;DHT22;7152;48.348;10.980;2022-08-21T03:10:03;14.40;99.90
14144;DHT22;7152;48.348;10.980;2022-08-21T03:12:29;14.40;99.90
14144;DHT22;7152;48.348;10.980;2022-08-21T03:14:54;14.40;99.90
14144;DHT22;7152;48.348;10.980;2022-08-21T03:17:21;14.40;99.90
14144;DHT22;7152;48.348;10.980;2022-08-21T03:19:47;14.40;99.90
14144;DHT22;7152;48.348;10.980;2022-08-21T03:22:12;14.40;99.90
14144;DHT22;7152;48.348;10.980;2022-08-21T03:24:38;14.40;99.90
14144;DHT22;7152;48.348;10.980;2022-08-21T03:27:04;14.40;99.90
14144;DHT22;7152;48.348;10.980;2022-08-21T03:29:29;14.30;99.90
14144;DHT22;7152;48.348;10.980;2022-08-21T03:31:55;14.30;99.90
14144;DHT22;7152;48.348;10.980;2022-08-21T03:34:21;14.30;99.90
14144;DHT22;7152;48.348;10.980;2022-08-21T03:36:47;14.30;99.90
14144;DHT22;7152;48.348;10.980;2022-08-21T03:39:15;14.30;99.90
14144;DHT22;7152;48.348;10.980;2022-08-21T03:41:41;14.30;99.90
14144;DHT22;7152;48.348;10.980;2022-08-21T03:44:07;14.30;99.90
14144;DHT22;7152;48.348;10.980;2022-08-21T03:46:32;14.20;99.90
14144;DHT22;7152;48.348;10.980;2022-08-21T03:48:58;14.30;99.90
14144;DHT22;7152;48.348;10.980;2022-08-21T03:51:24;14.30;99.90
14144;DHT22;7152;48.348;10.980;2022-08-21T03:53:49;14.30;99.90
14144;DHT22;7152;48.348;10.980;2022-08-21T03:56:15;14.30;99.90
14144;DHT22;7152;48.348;10.980;2022-08-21T03:58:42;14.30;99.90
14144;DHT22;7152;48.348;10.980;2022-08-21T04:01:10;14.30;99.90
14144;DHT22;7152;48.348;10.980;2022-08-21T04:03:37;14.20;99.90
14144;DHT22;7152;48.348;10.980;2022-08-21T04:06:03;14.20;99.90
14144;DHT22;7152;48.348;10.980;2022-08-21T04:08:29;14.20;99.90
14144;DHT22;7152;48.348;10.980;2022-08-21T04:10:57;14.20;99.90
14144;DHT22;7152;48.348;10.980;2022-08-21T04:13:23;14.10;99.90
14144;DHT22;7152;48.348;10.980;2022-08-21T04:15:49;14.10;99.90
14144;DHT22;7152;48.348;10.980;2022-08-21T04:18:15;14.10;99.90
14144;DHT22;7152;48.348;10.980;2022-08-21T04:20:43;14.00;99.90
14144;DHT22;7152;48.348;10.980;2022-08-21T04:23:09;14.10;99.90
14144;DHT22;7152;48.348;10.980;2022-08-21T04:25:35;14.00;99.90
14144;DHT22;7152;48.348;10.980;2022-08-21T04:28:01;14.00;99.90
14144;DHT22;7152;48.348;10.980;2022-08-21T04:30:28;14.00;99.90
14144;DHT22;7152;48.348;10.980;2022-08-21T04:32:54;14.00;99.90
14144;DHT22;7152;48.348;10.980;2022-08-21T04:35:22;14.00;99.90
14144;DHT22;7152;48.348;10.980;2022-08-21T04:37:48;14.00;99.90
14144;DHT22;7152;48.348;10.980;2022-08-21T04:40:16;13.90;99.90
14144;DHT22;7152;48.348;10.980;2022-08-21T04:42:48;13.90;99.90
14144;DHT22;7152;48.348;10.980;2022-08-21T04:45:26;13.90;99.90
14144;DHT22;7152;48.348;10.980;2022-08-21T04:47:54;14.00;99.90
14144;DHT22;7152;48.348;10.980;2022-08-21T04:50:22;13.90;99.90
14144;DHT22;7152;48.348;10.980;2022-08-21T04:52:49;13.90;99.90
14144;DHT22;7152;48.348;10.980;2022-08-21T04:55:16;13.90;99.90
14144;DHT22;7152;48.348;10.980;2022-08-21T04:57:44;14.00;99.90
14144;DHT22;7152;48.348;10.980;2022-08-21T05:00:11;14.00;99.90
14144;DHT22;7152;48.348;10.980;2022-08-21T05:02:39;14.00;99.90
14144;DHT22;7152;48.348;10.980;2022-08-21T05:05:06;14.00;99.90
14144;DHT22;7152;48.348;10.980;2022-08-21T05:07:32;14.00;99.90
14144;DHT22;7152;48.348;10.980;2022-08-21T05:09:59;14.10;99.90
14144;DHT22;7152;48.348;10.980;2022-08-21T05:12:25;14.10;99.90
14144;DHT22;7152;48.348;10.980;2022-08-21T05:14:51;14.10;99.90
14144;DHT22;7152;48.348;10.980;2022-08-21T05:17:17;14.10;99.90
14144;DHT22;7152;48.348;10.980;2022-08-21T05:19:42;14.10;99.90
14144;DHT22;7152;48.348;10.980;2022-08-21T05:22:08;14.20;99.90
14144;DHT22;7152;48.348;10.980;2022-08-21T05:24:34;14.20;99.90
14144;DHT22;7152;48.348;10.980;2022-08-21T05:27:00;14.20;99.90
14144;DHT22;7152;48.348;10.980;2022-08-21T05:29:26;14.30;99.90
14144;DHT22;7152;48.348;10.980;2022-08-21T05:31:52;14.30;99.90
14144;DHT22;7152;48.348;10.980;2022-08-21T05:34:20;14.40;99.90
14144;DHT22;7152;48.348;10.980;2022-08-21T05:36:46;14.40;99.90
14144;DHT22;7152;48.348;10.980;2022-08-21T05:39:12;14.40;99.90
14144;DHT22;7152;48.348;10.980;2022-08-21T05:41:38;14.50;99.90
14144;DHT22;7152;48.348;10.980;2022-08-21T05:44:03;14.50;99.90
14144;DHT22;7152;48.348;10.980;2022-08-21T05:46:29;14.60;99.90
14144;DHT22;7152;48.348;10.980;2022-08-21T05:48:55;14.60;99.90
14144;DHT22;7152;48.348;10.980;2022-08-21T05:51:20;14.70;99.90
14144;DHT22;7152;48.348;10.980;2022-08-21T05:53:46;14.70;99.90
14144;DHT22;7152;48.348;10.980;2022-08-21T05:56:13;14.80;99.90
14144;DHT22;7152;48.348;10.980;2022-08-21T05:58:39;14.80;99.90
14144;DHT22;7152;48.348;10.980;2022-08-21T06:01:05;14.90;99.90
14144;DHT22;7152;48.348;10.980;2022-08-21T06:03:33;14.90;99.90
14144;DHT22;7152;48.348;10.980;2022-08-21T06:06:00;15.00;99.90
14144;DHT22;7152;48.348;10.980;2022-08-21T06:08:27;15.00;99.90
14144;DHT22;7152;48.348;10.980;2022-08-21T06:10:54;15.10;99.90
14144;DHT22;7152;48.348;10.980;2022-08-21T06:13:20;15.20;99.90
14144;DHT22;7152;48.348;10.980;2022-08-21T06:15:46;15.20;99.90
14144;DHT22;7152;48.348;10.980;2022-08-21T06:18:12;15.20;99.90
14144;DHT22;7152;48.348;10.980;2022-08-21T06:20:40;15.30;99.90
14144;DHT22;7152;48.348;10.980;2022-08-21T06:23:06;15.40;99.90
14144;DHT22;7152;48.348;10.980;2022-08-21T06:25:32;15.40;99.90
14144;DHT22;7152;48.348;10.980;2022-08-21T06:28:03;15.50;99.90
14144;DHT22;7152;48.348;10.980;2022-08-21T06:30:29;15.60;99.90
14144;DHT22;7152;48.348;10.980;2022-08-21T06:32:55;15.60;99.90
14144;DHT22;7152;48.348;10.980;2022-08-21T06:35:21;15.70;99.90
14144;DHT22;7152;48.348;10.980;2022-08-21T06:37:46;15.80;99.90
14144;DHT22;7152;48.348;10.980;2022-08-21T06:40:12;15.80;99.90
14144;DHT22;7152;48.348;10.980;2022-08-21T06:42:38;15.90;99.90
14144;DHT22;7152;48.348;10.980;2022-08-21T06:45:04;16.00;99.90
14144;DHT22;7152;48.348;10.980;2022-08-21T06:47:30;16.00;99.90
14144;DHT22;7152;48.348;10.980;2022-08-21T06:49:56;16.10;99.90
14144;DHT22;7152;48.348;10.980;2022-08-21T06:52:21;16.20;99.90
14144;DHT22;7152;48.348;10.980;2022-08-21T06:54:47;16.30;99.90
14144;DHT22;7152;48.348;10.980;2022-08-21T06:57:13;16.30;99.90
14144;DHT22;7152;48.348;10.980;2022-08-21T06:59:39;16.50;99.90
14144;DHT22;7152;48.348;10.980;2022-08-21T07:02:04;16.60;99.90
14144;DHT22;7152;48.348;10.980;2022-08-21T07:04:30;16.60;99.90
14144;DHT22;7152;48.348;10.980;2022-08-21T07:06:56;16.70;99.90
14144;DHT22;7152;48.348;10.980;2022-08-21T07:09:21;16.80;99.90
14144;DHT22;7152;48.348;10.980;2022-08-21T07:11:51;16.80;99.90
14144;DHT22;7152;48.348;10.980;2022-08-21T07:14:17;17.00;99.90
14144;DHT22;7152;48.348;10.980;2022-08-21T07:16:43;17.10;99.90
14144;DHT22;7152;48.348;10.980;2022-08-21T07:19:09;17.10;99.90
14144;DHT22;7152;48.348;10.980;2022-08-21T07:21:34;17.20;99.90
14144;DHT22;7152;48.348;10.980;2022-08-21T07:24:00;17.30;99.90
14144;DHT22;7152;48.348;10.980;2022-08-21T07:26:25;17.40;99.90
14144;DHT22;7152;48.348;10.980;2022-08-21T07:28:52;17.40;99.90
14144;DHT22;7152;48.348;10.980;2022-08-21T07:31:20;17.50;99.90
14144;DHT22;7152;48.348;10.980;2022-08-21T07:33:47;17.50;99.90
14144;DHT22;7152;48.348;10.980;2022-08-21T07:36:13;17.70;99.90
14144;DHT22;7152;48.348;10.980;2022-08-21T07:38:39;17.70;99.90
14144;DHT22;7152;48.348;10.980;2022-08-21T07:41:16;17.80;99.90
14144;DHT22;7152;48.348;10.980;2022-08-21T07:43:42;17.90;99.90
14144;DHT22;7152;48.348;10.980;2022-08-21T07:46:09;17.90;99.90
14144;DHT22;7152;48.348;10.980;2022-08-21T07:48:34;18.00;99.90
14144;DHT22;7152;48.348;10.980;2022-08-21T07:51:04;18.10;99.90
14144;DHT22;7152;48.348;10.980;2022-08-21T07:53:31;18.20;99.90
14144;DHT22;7152;48.348;10.980;2022-08-21T07:55:57;18.20;99.90
14144;DHT22;7152;48.348;10.980;2022-08-21T07:58:23;18.20;99.90
14144;DHT22;7152;48.348;10.980;2022-08-21T08:00:49;18.30;99.90
14144;DHT22;7152;48.348;10.980;2022-08-21T08:03:14;18.40;99.90
14144;DHT22;7152;48.348;10.980;2022-08-21T08:05:40;18.40;99.90
14144;DHT22;7152;48.348;10.980;2022-08-21T08:08:06;18.50;99.90
14144;DHT22;7152;48.348;10.980;2022-08-21T08:10:32;18.50;99.90
14144;DHT22;7152;48.348;10.980;2022-08-21T08:12:57;18.60;99.90
14144;DHT22;7152;48.348;10.980;2022-08-21T08:15:25;18.70;99.90
14144;DHT22;7152;48.348;10.980;2022-08-21T08:17:53;18.80;99.90
14144;DHT22;7152;48.348;10.980;2022-08-21T08:20:20;18.90;99.90
14144;DHT22;7152;48.348;10.980;2022-08-21T08:22:48;19.00;99.90
14144;DHT22;7152;48.348;10.980;2022-08-21T08:25:14;19.00;99.90
14144;DHT22;7152;48.348;10.980;2022-08-21T08:27:41;19.00;99.90
14144;DHT22;7152;48.348;10.980;2022-08-21T08:30:08;19.00;99.90
14144;DHT22;7152;48.348;10.980;2022-08-21T08:32:35;19.00;99.90
14144;DHT22;7152;48.348;10.980;2022-08-21T08:35:00;18.90;99.90
14144;DHT22;7152;48.348;10.980;2022-08-21T08:37:27;18.90;99.90
14144;DHT22;7152;48.348;10.980;2022-08-21T08:39:53;19.00;99.90
14144;DHT22;7152;48.348;10.980;2022-08-21T08:42:25;19.10;99.90
14144;DHT22;7152;48.348;10.980;2022-08-21T08:45:04;19.20;99.90
14144;DHT22;7152;48.348;10.980;2022-08-21T08:47:32;19.40;99.90
14144;DHT22;7152;48.348;10.980;2022-08-21T08:50:41;19.50;99.90
14144;DHT22;7152;48.348;10.980;2022-08-21T08:53:19;19.70;99.90
14144;DHT22;7152;48.348;10.980;2022-08-21T08:55:48;19.80;99.90
14144;DHT22;7152;48.348;10.980;2022-08-21T08:58:27;19.90;99.90
14144;DHT22;7152;48.348;10.980;2022-08-21T09:00:56;20.00;99.90
14144;DHT22;7152;48.348;10.980;2022-08-21T09:03:23;20.10;99.90
14144;DHT22;7152;48.348;10.980;2022-08-21T09:19:27;20.90;99.90
14144;DHT22;7152;48.348;10.980;2022-08-21T09:27:33;21.30;99.90
14144;DHT22;7152;48.348;10.980;2022-08-21T09:30:00;21.50;99.90
14144;DHT22;7152;48.348;10.980;2022-08-21T09:32:29;21.60;99.90
14144;DHT22;7152;48.348;10.980;2022-08-21T09:35:04;21.70;99.90
14144;DHT22;7152;48.348;10.980;2022-08-21T09:37:31;21.80;99.90
14144;DHT22;7152;48.348;10.980;2022-08-21T09:39:58;22.00;99.90
14144;DHT22;7152;48.348;10.980;2022-08-21T09:42:28;22.20;99.90
14144;DHT22;7152;48.348;10.980;2022-08-21T09:45:23;22.30;99.90
14144;DHT22;7152;48.348;10.980;2022-08-21T09:47:49;22.50;99.90
14144;DHT22;7152;48.348;10.980;2022-08-21T09:50:17;22.70;99.90
14144;DHT22;7152;48.348;10.980;2022-08-21T09:52:55;22.90;99.90
14144;DHT22;7152;48.348;10.980;2022-08-21T09:55:33;23.10;99.90
14144;DHT22;7152;48.348;10.980;2022-08-21T09:58:18;23.20;99.90
14144;DHT22;7152;48.348;10.980;2022-08-21T10:00:56;23.50;99.90
14144;DHT22;7152;48.348;10.980;2022-08-21T10:03:22;23.60;99.90
14144;DHT22;7152;48.348;10.980;2022-08-21T10:06:04;23.60;99.90
14144;DHT22;7152;48.348;10.980;2022-08-21T10:08:33;23.70;99.90
14144;DHT22;7152;48.348;10.980;2022-08-21T10:11:05;23.70;99.90
14144;DHT22;7152;48.348;10.980;2022-08-21T10:13:45;23.90;99.90
14144;DHT22;7152;48.348;10.980;2022-08-21T10:16:18;24.10;99.90
14144;DHT22;7152;48.348;10.980;2022-08-21T10:19:09;24.20;99.90
14144;DHT22;7152;48.348;10.980;2022-08-21T10:22:02;24.30;99.90
14144;DHT22;7152;48.348;10.980;2022-08-21T10:24:43;24.60;99.90
14144;DHT22;7152;48.348;10.980;2022-08-21T10:27:21;24.90;99.90
14144;DHT22;7152;48.348;10.980;2022-08-21T10:30:01;25.00;99.90
14144;DHT22;7152;48.348;10.980;2022-08-21T10:32:52;25.20;99.90
14144;DHT22;7152;48.348;10.980;2022-08-21T10:45:57;26.40;99.90
14144;DHT22;7152;48.348;10.980;2022-08-21T10:48:34;26.70;99.90
14144;DHT22;7152;48.348;10.980;2022-08-21T10:51:13;26.80;99.90
14144;DHT22;7152;48.348;10.980;2022-08-21T10:53:44;26.90;99.90
14144;DHT22;7152;48.348;10.980;2022-08-21T10:56:24;26.50;99.90
14144;DHT22;7152;48.348;10.980;2022-08-21T11:01:46;25.40;99.90
14144;DHT22;7152;48.348;10.980;2022-08-21T11:04:33;25.50;99.90
14144;DHT22;7152;48.348;10.980;2022-08-21T11:07:14;25.60;99.90
14144;DHT22;7152;48.348;10.980;2022-08-21T11:09:43;26.20;99.90
14144;DHT22;7152;48.348;10.980;2022-08-21T11:12:24;26.20;99.90
14144;DHT22;7152;48.348;10.980;2022-08-21T11:17:50;26.90;99.90
14144;DHT22;7152;48.348;10.980;2022-08-21T11:20:40;27.20;99.90
14144;DHT22;7152;48.348;10.980;2022-08-21T11:23:24;27.60;99.90
14144;DHT22;7152;48.348;10.980;2022-08-21T11:26:02;27.90;99.90
14144;DHT22;7152;48.348;10.980;2022-08-21T11:28:43;28.50;99.90
14144;DHT22;7152;48.348;10.980;2022-08-21T11:34:57;29.20;99.90
14144;DHT22;7152;48.348;10.980;2022-08-21T11:40:18;30.40;99.90
14144;DHT22;7152;48.348;10.980;2022-08-21T11:43:01;30.50;99.50
14144;DHT22;7152;48.348;10.980;2022-08-21T11:45:55;31.10;99.90
14144;DHT22;7152;48.348;10.980;2022-08-21T11:51:48;32.30;98.10
14144;DHT22;7152;48.348;10.980;2022-08-21T11:54:31;32.70;95.10
14144;DHT22;7152;48.348;10.980;2022-08-21T11:57:04;33.00;94.70
14144;DHT22;7152;48.348;10.980;2022-08-21T12:01:57;33.20;93.90
14144;DHT22;7152;48.348;10.980;2022-08-21T12:04:35;33.10;92.80
14144;DHT22;7152;48.348;10.980;2022-08-21T12:07:16;33.40;90.20
14144;DHT22;7152;48.348;10.980;2022-08-21T12:09:53;33.90;91.10
14144;DHT22;7152;48.348;10.980;2022-08-21T12:15:23;34.90;89.20
14144;DHT22;7152;48.348;10.980;2022-08-21T12:18:28;34.90;85.50
14144;DHT22;7152;48.348;10.980;2022-08-21T12:21:19;34.80;80.30
14144;DHT22;7152;48.348;10.980;2022-08-21T12:23:47;34.90;81.40
14144;DHT22;7152;48.348;10.980;2022-08-21T12:28:39;35.40;81.20
14144;DHT22;7152;48.348;10.980;2022-08-21T12:31:17;35.60;81.00
14144;DHT22;7152;48.348;10.980;2022-08-21T12:33:51;35.80;77.90
14144;DHT22;7152;48.348;10.980;2022-08-21T12:36:20;35.80;75.60
14144;DHT22;7152;48.348;10.980;2022-08-21T12:39:03;35.90;75.00
14144;DHT22;7152;48.348;10.980;2022-08-21T12:41:35;35.90;74.10
14144;DHT22;7152;48.348;10.980;2022-08-21T12:44:14;35.70;73.10
14144;DHT22;7152;48.348;10.980;2022-08-21T12:46:57;36.20;71.10
14144;DHT22;7152;48.348;10.980;2022-08-21T12:49:48;36.50;71.80
14144;DHT22;7152;48.348;10.980;2022-08-21T12:52:20;36.40;70.90
14144;DHT22;7152;48.348;10.980;2022-08-21T12:54:46;36.50;69.10
14144;DHT22;7152;48.348;10.980;2022-08-21T12:57:29;36.50;69.30
14144;DHT22;7152;48.348;10.980;2022-08-21T12:59:56;36.70;67.20
14144;DHT22;7152;48.348;10.980;2022-08-21T13:02:35;36.90;67.90
14144;DHT22;7152;48.348;10.980;2022-08-21T13:05:05;37.10;65.30
14144;DHT22;7152;48.348;10.980;2022-08-21T13:07:34;37.00;65.60
14144;DHT22;7152;48.348;10.980;2022-08-21T13:12:30;37.60;65.80
14144;DHT22;7152;48.348;10.980;2022-08-21T13:14:58;37.90;64.90
14144;DHT22;7152;48.348;10.980;2022-08-21T13:17:26;38.10;63.60
14144;DHT22;7152;48.348;10.980;2022-08-21T13:20:02;37.90;62.30
14144;DHT22;7152;48.348;10.980;2022-08-21T13:22:28;38.10;62.30
14144;DHT22;7152;48.348;10.980;2022-08-21T13:24:55;38.10;61.20
14144;DHT22;7152;48.348;10.980;2022-08-21T13:27:29;38.00;60.50
14144;DHT22;7152;48.348;10.980;2022-08-21T13:30:18;38.30;60.10
14144;DHT22;7152;48.348;10.980;2022-08-21T13:32:54;38.60;57.20
14144;DHT22;7152;48.348;10.980;2022-08-21T13:35:44;38.40;57.40
14144;DHT22;7152;48.348;10.980;2022-08-21T13:38:11;38.30;57.20
14144;DHT22;7152;48.348;10.980;2022-08-21T13:40:51;38.30;57.60
14144;DHT22;7152;48.348;10.980;2022-08-21T13:43:21;38.50;56.20
14144;DHT22;7152;48.348;10.980;2022-08-21T13:45:51;38.50;56.40
14144;DHT22;7152;48.348;10.980;2022-08-21T13:48:18;38.50;56.70
14144;DHT22;7152;48.348;10.980;2022-08-21T13:50:45;38.40;55.90
14144;DHT22;7152;48.348;10.980;2022-08-21T13:53:36;37.00;56.10
14144;DHT22;7152;48.348;10.980;2022-08-21T13:56:44;35.50;59.00
14144;DHT22;7152;48.348;10.980;2022-08-21T13:59:11;34.10;59.60
14144;DHT22;7152;48.348;10.980;2022-08-21T14:01:51;33.70;61.90
14144;DHT22;7152;48.348;10.980;2022-08-21T14:04:26;34.40;60.60
14144;DHT22;7152;48.348;10.980;2022-08-21T14:06:53;33.80;60.60
14144;DHT22;7152;48.348;10.980;2022-08-21T14:09:35;33.40;61.40
14144;DHT22;7152;48.348;10.980;2022-08-21T14:12:15;33.40;61.30
14144;DHT22;7152;48.348;10.980;2022-08-21T14:14:41;34.40;59.60
14144;DHT22;7152;48.348;10.980;2022-08-21T14:17:12;35.30;60.60
14144;DHT22;7152;48.348;10.980;2022-08-21T14:19:45;36.20;59.50
14144;DHT22;7152;48.348;10.980;2022-08-21T14:24:49;37.90;56.10
14144;DHT22;7152;48.348;10.980;2022-08-21T14:27:17;38.10;56.20
14144;DHT22;7152;48.348;10.980;2022-08-21T14:29:44;38.20;55.40
14144;DHT22;7152;48.348;10.980;2022-08-21T14:32:15;37.60;55.10
14144;DHT22;7152;48.348;10.980;2022-08-21T14:34:41;36.70;55.70
14144;DHT22;7152;48.348;10.980;2022-08-21T14:37:06;35.60;57.20
14144;DHT22;7152;48.348;10.980;2022-08-21T14:39:32;34.90;57.70
14144;DHT22;7152;48.348;10.980;2022-08-21T14:41:59;35.10;57.70
14144;DHT22;7152;48.348;10.980;2022-08-21T14:44:26;35.90;56.80
14144;DHT22;7152;48.348;10.980;2022-08-21T14:46:52;36.50;55.40
14144;DHT22;7152;48.348;10.980;2022-08-21T14:49:18;37.00;54.80
14144;DHT22;7152;48.348;10.980;2022-08-21T14:51:44;36.00;56.10
14144;DHT22;7152;48.348;10.980;2022-08-21T14:54:10;34.90;57.10
14144;DHT22;7152;48.348;10.980;2022-08-21T14:56:36;33.80;57.50
14144;DHT22;7152;48.348;10.980;2022-08-21T14:59:04;32.80;60.00
14144;DHT22;7152;48.348;10.980;2022-08-21T15:01:43;32.70;60.90
14144;DHT22;7152;48.348;10.980;2022-08-21T15:04:09;33.10;61.00
14144;DHT22;7152;48.348;10.980;2022-08-21T15:06:36;32.90;62.00
14144;DHT22;7152;48.348;10.980;2022-08-21T15:09:02;32.30;61.80
14144;DHT22;7152;48.348;10.980;2022-08-21T15:11:30;31.70;62.80
14144;DHT22;7152;48.348;10.980;2022-08-21T15:14:00;31.00;63.40
14144;DHT22;7152;48.348;10.980;2022-08-21T15:16:28;30.20;65.30
14144;DHT22;7152;48.348;10.980;2022-08-21T15:18:54;29.50;66.30
14144;DHT22;7152;48.348;10.980;2022-08-21T15:21:20;29.80;67.10
14144;DHT22;7152;48.348;10.980;2022-08-21T15:23:45;30.60;66.50
14144;DHT22;7152;48.348;10.980;2022-08-21T15:26:11;31.40;65.60
14144;DHT22;7152;48.348;10.980;2022-08-21T15:28:37;32.40;65.00
14144;DHT22;7152;48.348;10.980;2022-08-21T15:31:04;33.20;63.90
14144;DHT22;7152;48.348;10.980;2022-08-21T15:33:31;33.70;63.10
14144;DHT22;7152;48.348;10.980;2022-08-21T15:35:57;34.30;62.70
14144;DHT22;7152;48.348;10.980;2022-08-21T15:38:25;34.70;62.00
14144;DHT22;7152;48.348;10.980;2022-08-21T15:40:51;34.80;60.90
14144;DHT22;7152;48.348;10.980;2022-08-21T15:43:29;35.40;60.90
14144;DHT22;7152;48.348;10.980;2022-08-21T15:45:55;35.70;59.90
14144;DHT22;7152;48.348;10.980;2022-08-21T15:48:21;35.70;59.60
14144;DHT22;7152;48.348;10.980;2022-08-21T15:50:47;35.90;59.30
14144;DHT22;7152;48.348;10.980;2022-08-21T15:53:13;36.00;59.40
14144;DHT22;7152;48.348;10.980;2022-08-21T15:55:39;36.00;59.60
14144;DHT22;7152;48.348;10.980;2022-08-21T15:58:05;35.60;59.30
14144;DHT22;7152;48.348;10.980;2022-08-21T16:00:34;35.30;59.80
14144;DHT22;7152;48.348;10.980;2022-08-21T16:03:03;34.40;60.30
14144;DHT22;7152;48.348;10.980;2022-08-21T16:05:30;33.40;60.50
14144;DHT22;7152;48.348;10.980;2022-08-21T16:07:57;32.50;61.60
14144;DHT22;7152;48.348;10.980;2022-08-21T16:10:23;31.50;62.70
14144;DHT22;7152;48.348;10.980;2022-08-21T16:12:56;30.60;63.10
14144;DHT22;7152;48.348;10.980;2022-08-21T16:15:24;29.80;64.10
14144;DHT22;7152;48.348;10.980;2022-08-21T16:17:51;29.10;64.70
14144;DHT22;7152;48.348;10.980;2022-08-21T16:20:23;28.50;65.70
14144;DHT22;7152;48.348;10.980;2022-08-21T16:22:49;28.10;67.40
14144;DHT22;7152;48.348;10.980;2022-08-21T16:25:15;27.60;68.10
14144;DHT22;7152;48.348;10.980;2022-08-21T16:27:45;27.20;69.50
14144;DHT22;7152;48.348;10.980;2022-08-21T16:30:12;27.00;71.00
14144;DHT22;7152;48.348;10.980;2022-08-21T16:32:40;26.80;72.20
14144;DHT22;7152;48.348;10.980;2022-08-21T16:35:06;26.60;74.00
14144;DHT22;7152;48.348;10.980;2022-08-21T16:37:32;26.40;71.90
14144;DHT22;7152;48.348;10.980;2022-08-21T16:39:58;26.30;71.60
14144;DHT22;7152;48.348;10.980;2022-08-21T16:42:25;26.20;71.30